createdAt,value
2023-01-23T00:02:11.286Z,-2.20
2023-01-23T00:04:37.995Z,-2.01
2023-01-23T00:07:04.811Z,-2.05
2023-01-23T00:09:31.765Z,-1.97
2023-01-23T00:11:59.035Z,-2.14
2023-01-23T00:14:25.758Z,-1.90
2023-01-23T00:16:52.457Z,-2.00
2023-01-23T00:19:19.843Z,-1.92
2023-01-23T00:21:49.088Z,-2.09
2023-01-23T00:24:15.707Z,-2.14
2023-01-23T00:26:42.549Z,-1.90
2023-01-23T00:29:09.181Z,-2.11
2023-01-23T00:31:37.804Z,-1.89
2023-01-23T00:34:08.205Z,-2.08
2023-01-23T00:36:38.421Z,-1.89
2023-01-23T00:39:08.589Z,-1.84
2023-01-23T00:41:35.625Z,-1.83
2023-01-23T00:44:04.324Z,-1.99
2023-01-23T00:46:31.090Z,-2.12
2023-01-23T00:48:57.844Z,-1.80
2023-01-23T00:51:25.342Z,-2.08
2023-01-23T00:53:52.147Z,-2.17
2023-01-23T00:56:19.185Z,-2.04
2023-01-23T00:58:46.962Z,-1.93
2023-01-23T01:01:15.179Z,-1.87
2023-01-23T01:03:43.160Z,-1.95
2023-01-23T01:06:10.949Z,-1.86
2023-01-23T01:08:37.884Z,-2.13
2023-01-23T01:11:04.851Z,-1.99
2023-01-23T01:13:31.823Z,-2.12
2023-01-23T01:16:02.015Z,-1.93
2023-01-23T01:18:30.036Z,-1.91
2023-01-23T01:20:57.342Z,-1.99
2023-01-23T01:23:24.483Z,-2.09
2023-01-23T01:25:51.633Z,-1.92
2023-01-23T01:28:18.638Z,-1.90
2023-01-23T01:30:47.383Z,-2.18
2023-01-23T01:33:14.677Z,-2.15
2023-01-23T01:35:42.313Z,-1.92
2023-01-23T01:38:09.334Z,-2.08
2023-01-23T01:40:37.287Z,-2.15
2023-01-23T01:43:08.494Z,-2.07
2023-01-23T01:46:03.812Z,-1.97
2023-01-23T01:48:45.774Z,-1.92
2023-01-23T01:51:35.049Z,-2.04
2023-01-23T01:54:15.883Z,-1.87
2023-01-23T01:57:08.920Z,-1.84
2023-01-23T01:59:46.685Z,-1.81
2023-01-23T02:02:27.972Z,-1.81
2023-01-23T02:05:11.555Z,-2.12
2023-01-23T02:08:03.738Z,-1.79
2023-01-23T02:10:32.481Z,-1.85
2023-01-23T02:13:22.260Z,-1.97
2023-01-23T02:15:51.428Z,-2.09
2023-01-23T02:18:18.536Z,-2.15
2023-01-23T02:20:47.429Z,-2.13
2023-01-23T02:23:34.348Z,-1.91
2023-01-23T02:26:05.145Z,-1.87
2023-01-23T02:28:40.182Z,-1.88
2023-01-23T02:31:07.917Z,-2.08
2023-01-23T02:33:34.866Z,-1.90
2023-01-23T02:36:03.511Z,-2.15
2023-01-23T02:38:37.048Z,-2.13
2023-01-23T02:41:08.316Z,-1.95
2023-01-23T02:43:37.337Z,-2.25
2023-01-23T02:46:09.537Z,-2.08
2023-01-23T02:48:44.390Z,-1.97
2023-01-23T02:51:11.520Z,-1.99
2023-01-23T02:53:39.410Z,-2.21
2023-01-23T02:56:06.425Z,-2.20
2023-01-23T02:58:51.576Z,-2.16
2023-01-23T03:01:19.245Z,-2.29
2023-01-23T03:03:45.848Z,-2.19
2023-01-23T03:06:12.599Z,-2.41
2023-01-23T03:08:49.158Z,-2.10
2023-01-23T03:11:18.219Z,-2.08
2023-01-23T03:13:46.332Z,-2.22
2023-01-23T03:16:13.437Z,-2.03
2023-01-23T03:18:53.424Z,-2.14
2023-01-23T03:21:21.272Z,-1.99
2023-01-23T03:23:48.396Z,-2.14
2023-01-23T03:26:15.628Z,-1.95
2023-01-23T03:29:01.468Z,-1.97
2023-01-23T03:31:28.230Z,-2.02
2023-01-23T03:33:54.972Z,-2.21
2023-01-23T03:36:22.731Z,-1.97
2023-01-23T03:39:08.017Z,-2.12
2023-01-23T03:41:36.643Z,-2.08
2023-01-23T03:44:03.873Z,-2.29
2023-01-23T03:46:31.219Z,-2.18
2023-01-23T03:48:57.870Z,-2.28
2023-01-23T03:51:24.623Z,-2.21
2023-01-23T03:53:51.767Z,-1.94
2023-01-23T03:56:19.268Z,-1.96
2023-01-23T03:58:45.972Z,-2.05
2023-01-23T04:01:13.679Z,-2.07
2023-01-23T04:03:42.301Z,-2.33
2023-01-23T04:06:09.095Z,-2.31
2023-01-23T04:08:36.404Z,-2.20
2023-01-23T04:11:08.346Z,-2.21
2023-01-23T04:13:35.244Z,-2.19
2023-01-23T04:16:02.801Z,-2.11
2023-01-23T04:18:29.776Z,-2.16
2023-01-23T04:20:56.815Z,-1.98
2023-01-23T04:23:24.242Z,-2.18
2023-01-23T04:25:52.041Z,-2.04
2023-01-23T04:28:19.918Z,-2.22
2023-01-23T04:30:53.229Z,-2.23
2023-01-23T04:33:29.893Z,-2.59
2023-01-23T04:36:02.301Z,-2.07
2023-01-23T04:38:31.190Z,-1.99
2023-01-23T04:41:07.201Z,-2.07
2023-01-23T04:43:37.175Z,-1.93
2023-01-23T04:46:08.529Z,-2.23
2023-01-23T04:49:01.216Z,-2.19
2023-01-23T04:51:28.210Z,-1.94
2023-01-23T04:53:55.530Z,-1.93
2023-01-23T04:56:22.699Z,-2.21
2023-01-23T04:58:49.884Z,-2.00
2023-01-23T05:01:23.290Z,-1.95
2023-01-23T05:03:53.678Z,-1.93
2023-01-23T05:06:23.282Z,-2.16
2023-01-23T05:08:52.555Z,-2.40
2023-01-23T05:11:25.102Z,-2.22
2023-01-23T05:13:52.126Z,-2.21
2023-01-23T05:16:20.725Z,-2.10
2023-01-23T05:19:10.187Z,-2.10
2023-01-23T05:21:37.154Z,-2.26
2023-01-23T05:24:03.954Z,-2.28
2023-01-23T05:26:30.563Z,-2.03
2023-01-23T05:28:57.184Z,-2.24
2023-01-23T05:31:25.281Z,-2.34
2023-01-23T05:34:11.845Z,-2.17
2023-01-23T05:36:39.902Z,-2.11
2023-01-23T05:39:07.249Z,-2.24
2023-01-23T05:41:33.855Z,-2.06
2023-01-23T05:44:23.290Z,-2.16
2023-01-23T05:47:03.050Z,-2.18
2023-01-23T05:49:30.523Z,-2.35
2023-01-23T05:51:57.758Z,-2.68
2023-01-23T05:54:25.941Z,-2.11
2023-01-23T05:56:52.700Z,-2.31
2023-01-23T05:59:38.273Z,-2.10
2023-01-23T06:02:25.208Z,-2.09
2023-01-23T06:05:17.800Z,-2.29
2023-01-23T06:08:00.291Z,-2.11
2023-01-23T06:10:26.978Z,-2.14
2023-01-23T06:12:53.589Z,-2.23
2023-01-23T06:15:20.250Z,-1.99
2023-01-23T06:17:47.170Z,-1.98
2023-01-23T06:20:14.364Z,-2.16
2023-01-23T06:22:43.787Z,-2.24
2023-01-23T06:25:12.571Z,-2.23
2023-01-23T06:27:39.405Z,-1.99
2023-01-23T06:30:09.076Z,-2.30
2023-01-23T06:32:44.507Z,-2.27
2023-01-23T06:35:12.436Z,-2.16
2023-01-23T06:37:41.456Z,-2.39
2023-01-23T06:40:13.325Z,-2.63
2023-01-23T06:42:44.377Z,-2.34
2023-01-23T06:45:11.629Z,-2.38
2023-01-23T06:47:38.528Z,-2.36
2023-01-23T06:50:05.437Z,-2.73
2023-01-23T06:52:36.544Z,-2.64
2023-01-23T06:55:07.047Z,-2.59
2023-01-23T06:57:34.723Z,-2.51
2023-01-23T07:00:02.603Z,-2.73
2023-01-23T07:02:30.330Z,-2.74
2023-01-23T07:04:57.206Z,-2.53
2023-01-23T07:07:23.902Z,-2.62
2023-01-23T07:09:50.779Z,-2.83
2023-01-23T07:12:23.851Z,-2.80
2023-01-23T07:14:50.453Z,-2.73
2023-01-23T07:17:22.427Z,-2.72
2023-01-23T07:19:50.948Z,-2.61
2023-01-23T07:22:21.046Z,-2.84
2023-01-23T07:24:50.496Z,-2.72
2023-01-23T07:27:17.035Z,-2.74
2023-01-23T07:29:43.772Z,-2.69
2023-01-23T07:32:11.301Z,-2.49
2023-01-23T07:34:38.580Z,-2.56
2023-01-23T07:37:05.496Z,-2.51
2023-01-23T07:39:35.366Z,-2.60
2023-01-23T07:42:02.047Z,-2.50
2023-01-23T07:44:28.981Z,-2.38
2023-01-23T07:46:56.365Z,-2.76
2023-01-23T07:49:22.937Z,-2.54
2023-01-23T07:51:49.577Z,-2.83
2023-01-23T07:54:16.156Z,-2.49
2023-01-23T07:56:42.969Z,-2.72
2023-01-23T07:59:11.790Z,-2.68
2023-01-23T08:01:38.370Z,-2.90
2023-01-23T08:04:05.048Z,-2.64
2023-01-23T08:06:31.729Z,-2.61
2023-01-23T08:08:58.329Z,-2.42
2023-01-23T08:11:26.529Z,-2.36
2023-01-23T08:13:53.517Z,-2.50
2023-01-23T08:16:20.248Z,-2.48
2023-01-23T08:18:47.072Z,-2.29
2023-01-23T08:21:13.633Z,-2.45
2023-01-23T08:23:41.177Z,-2.39
2023-01-23T08:26:09.785Z,-2.31
2023-01-23T08:28:36.524Z,-2.30
2023-01-23T08:31:06.829Z,-2.26
2023-01-23T08:33:34.925Z,-1.97
2023-01-23T08:36:01.796Z,-1.77
2023-01-23T08:38:28.465Z,-1.87
2023-01-23T08:40:59.604Z,-1.48
2023-01-23T08:43:26.637Z,-1.42
2023-01-23T08:45:56.127Z,-1.35
2023-01-23T08:48:24.662Z,-1.26
2023-01-23T08:50:57.934Z,-1.01
2023-01-23T08:53:24.560Z,-0.88
2023-01-23T08:55:51.116Z,-0.82
2023-01-23T08:58:17.681Z,-0.92
2023-01-23T09:00:44.343Z,-1.22
2023-01-23T09:03:11.471Z,-1.21
2023-01-23T09:05:38.260Z,-1.17
2023-01-23T09:08:05.160Z,-0.99
2023-01-23T09:10:32.084Z,-1.00
2023-01-23T09:12:58.729Z,-0.87
2023-01-23T09:15:25.368Z,-0.62
2023-01-23T09:17:52.030Z,-0.84
2023-01-23T09:20:18.987Z,-0.77
2023-01-23T09:22:45.859Z,-0.53
2023-01-23T09:25:14.244Z,-0.50
2023-01-23T09:27:40.953Z,-0.34
2023-01-23T09:30:08.183Z,-0.45
2023-01-23T09:32:34.902Z,-0.49
2023-01-23T09:35:01.571Z,-0.26
2023-01-23T09:37:58.436Z,-0.33
2023-01-23T09:40:56.219Z,-0.36
2023-01-23T09:43:24.891Z,-0.30
2023-01-23T09:46:10.884Z,-0.28
2023-01-23T09:48:48.033Z,-0.31
2023-01-23T09:51:25.693Z,-0.39
2023-01-23T09:53:58.233Z,-0.44
2023-01-23T09:56:24.789Z,-0.36
2023-01-23T09:59:08.574Z,-0.32
2023-01-23T10:01:36.961Z,0.05
2023-01-23T10:04:05.011Z,0.08
2023-01-23T10:06:45.739Z,0.15
2023-01-23T10:09:37.907Z,0.39
2023-01-23T10:12:22.755Z,0.53
2023-01-23T10:15:21.388Z,0.37
2023-01-23T10:18:18.023Z,0.53
2023-01-23T10:21:03.381Z,0.65
2023-01-23T10:23:35.946Z,0.69
2023-01-23T10:26:04.218Z,0.58
2023-01-23T10:28:35.502Z,0.41
2023-01-23T10:31:07.732Z,0.29
2023-01-23T10:33:59.515Z,0.27
2023-01-23T10:36:47.569Z,0.35
2023-01-23T10:39:26.759Z,0.77
2023-01-23T10:42:01.511Z,0.86
2023-01-23T10:44:28.895Z,0.80
2023-01-23T10:47:02.525Z,0.73
2023-01-23T10:49:32.344Z,0.67
2023-01-23T10:51:59.115Z,0.52
2023-01-23T10:54:32.949Z,0.70
2023-01-23T10:57:09.173Z,0.66
2023-01-23T10:59:42.640Z,0.57
2023-01-23T11:02:15.872Z,0.72
2023-01-23T11:04:45.433Z,0.57
2023-01-23T11:07:17.654Z,0.86
2023-01-23T11:09:51.720Z,0.66
2023-01-23T11:12:25.791Z,0.95
2023-01-23T11:15:12.032Z,0.90
2023-01-23T11:17:39.239Z,1.00
2023-01-23T11:20:24.481Z,0.77
2023-01-23T11:23:03.714Z,1.09
2023-01-23T11:25:40.297Z,1.10
2023-01-23T11:28:54.762Z,1.05
2023-01-23T11:31:22.700Z,1.08
2023-01-23T11:33:58.091Z,1.12
2023-01-23T11:36:49.597Z,1.12
2023-01-23T11:39:47.705Z,1.07
2023-01-23T11:42:15.984Z,1.25
2023-01-23T11:44:46.393Z,1.20
2023-01-23T11:47:19.245Z,1.44
2023-01-23T11:50:04.302Z,1.37
2023-01-23T11:52:33.999Z,1.33
2023-01-23T11:55:25.547Z,1.35
2023-01-23T11:58:20.817Z,1.31
2023-01-23T12:01:05.620Z,1.03
2023-01-23T12:04:06.345Z,1.38
2023-01-23T12:06:43.202Z,1.28
2023-01-23T12:09:17.956Z,1.38
2023-01-23T12:11:47.421Z,1.48
2023-01-23T12:14:29.159Z,1.50
2023-01-23T12:17:23.785Z,1.57
2023-01-23T12:20:00.602Z,1.59
2023-01-23T12:22:49.054Z,1.68
2023-01-23T12:25:18.895Z,1.73
2023-01-23T12:27:48.735Z,1.57
2023-01-23T12:30:48.012Z,1.35
2023-01-23T12:33:34.965Z,1.92
2023-01-23T12:36:13.583Z,1.69
2023-01-23T12:39:09.443Z,2.08
2023-01-23T12:41:45.441Z,2.08
2023-01-23T12:44:43.217Z,2.09
2023-01-23T12:47:12.620Z,2.07
2023-01-23T12:49:46.857Z,2.25
2023-01-23T12:52:19.488Z,2.28
2023-01-23T12:54:54.174Z,1.96
2023-01-23T12:57:52.781Z,1.90
2023-01-23T13:00:56.073Z,1.88
2023-01-23T13:03:51.394Z,2.10
2023-01-23T13:06:34.783Z,1.90
2023-01-23T13:09:17.720Z,2.19
2023-01-23T13:11:50.453Z,2.35
2023-01-23T13:14:43.407Z,2.36
2023-01-23T13:17:37.864Z,2.50
2023-01-23T13:20:47.017Z,2.76
2023-01-23T13:23:35.534Z,2.71
2023-01-23T13:26:19.410Z,2.83
2023-01-23T13:28:47.948Z,2.51
2023-01-23T13:31:47.505Z,2.51
2023-01-23T13:34:17.238Z,2.56
2023-01-23T13:36:53.066Z,2.40
2023-01-23T13:39:27.274Z,2.50
2023-01-23T13:42:29.517Z,2.07
2023-01-23T13:45:35.778Z,2.40
2023-01-23T14:20:39.417Z,1.71
2023-01-23T14:23:20.793Z,1.43
2023-01-23T14:25:48.347Z,1.49
2023-01-23T14:28:17.778Z,1.49
2023-01-23T14:31:17.261Z,1.36
2023-01-23T14:33:45.326Z,1.41
2023-01-23T14:36:17.443Z,1.33
2023-01-23T14:38:47.120Z,1.13
2023-01-23T14:41:15.024Z,1.08
2023-01-23T14:43:43.611Z,1.24
2023-01-23T14:46:22.425Z,1.16
2023-01-23T14:48:54.543Z,1.11
2023-01-23T14:51:24.501Z,1.31
2023-01-23T14:53:57.289Z,1.03
2023-01-23T14:56:33.181Z,1.33
2023-01-23T14:59:03.596Z,1.17
2023-01-23T15:01:30.857Z,1.18
2023-01-23T15:04:00.690Z,1.25
2023-01-23T15:06:28.392Z,0.79
2023-01-23T15:09:06.250Z,1.30
2023-01-23T15:11:33.525Z,1.06
2023-01-23T15:14:02.288Z,1.26
2023-01-23T15:16:38.300Z,1.07
2023-01-23T15:19:06.834Z,1.27
2023-01-23T15:21:39.964Z,1.25
2023-01-23T15:24:09.606Z,1.22
2023-01-23T15:26:38.290Z,1.17
2023-01-23T15:29:18.744Z,0.98
2023-01-23T15:31:50.141Z,1.09
2023-01-23T15:34:16.850Z,0.97
2023-01-23T15:36:49.800Z,0.94
2023-01-23T15:39:33.122Z,0.85
2023-01-23T15:42:22.763Z,0.99
2023-01-23T15:44:50.173Z,1.01
2023-01-23T15:47:16.941Z,0.91
2023-01-23T15:49:43.646Z,0.75
2023-01-23T15:52:23.937Z,0.69
2023-01-23T15:54:53.667Z,0.82
2023-01-23T15:57:20.526Z,0.62
2023-01-23T15:59:47.167Z,0.72
2023-01-23T16:02:30.706Z,0.76
2023-01-23T16:04:58.367Z,0.69
2023-01-23T16:07:34.490Z,0.74
2023-01-23T16:10:05.157Z,0.84
2023-01-23T16:12:32.777Z,0.83
2023-01-23T16:14:59.612Z,0.67
2023-01-23T16:17:26.398Z,0.77
2023-01-23T16:19:54.315Z,0.48
2023-01-23T16:22:27.268Z,0.56
2023-01-23T16:24:54.106Z,0.54
2023-01-23T16:27:27.359Z,0.65
2023-01-23T16:29:55.108Z,0.27
2023-01-23T16:32:21.850Z,0.48
2023-01-23T16:34:48.792Z,0.12
2023-01-23T16:37:17.651Z,0.53
2023-01-23T16:39:47.615Z,0.46
2023-01-23T16:42:18.780Z,0.31
2023-01-23T16:44:45.748Z,0.36
2023-01-23T16:47:12.389Z,0.46
2023-01-23T16:49:51.569Z,0.05
2023-01-23T16:52:19.083Z,0.20
2023-01-23T16:54:45.775Z,0.43
2023-01-23T16:57:20.170Z,0.40
2023-01-23T16:59:48.341Z,0.14
2023-01-23T17:02:30.774Z,0.15
2023-01-23T17:04:57.573Z,0.23
2023-01-23T17:07:24.176Z,0.17
2023-01-23T17:09:51.727Z,0.27
2023-01-23T17:12:30.030Z,0.12
2023-01-23T17:15:00.005Z,0.16
2023-01-23T17:17:33.945Z,0.29
2023-01-23T17:20:04.743Z,-0.03
2023-01-23T17:22:37.302Z,0.09
2023-01-23T17:25:04.220Z,0.18
2023-01-23T17:27:36.268Z,-0.03
2023-01-23T17:30:13.792Z,0.13
2023-01-23T17:32:40.565Z,-0.05
2023-01-23T17:35:12.761Z,0.02
2023-01-23T17:37:39.420Z,-0.12
2023-01-23T17:40:07.717Z,-0.07
2023-01-23T17:42:34.330Z,0.23
2023-01-23T17:45:00.984Z,0.11
2023-01-23T17:47:34.439Z,0.19
2023-01-23T17:50:01.303Z,-0.16
2023-01-23T17:52:30.724Z,0.15
2023-01-23T17:54:57.340Z,-0.02
2023-01-23T17:57:23.934Z,-0.01
2023-01-23T17:59:50.577Z,0.03
2023-01-23T18:02:28.790Z,0.08
2023-01-23T18:04:55.805Z,0.19
2023-01-23T18:07:22.401Z,0.21
2023-01-23T18:09:49.014Z,0.04
2023-01-23T18:12:31.486Z,0.18
2023-01-23T18:15:16.571Z,0.20
2023-01-23T18:17:53.621Z,0.21
2023-01-23T18:20:22.795Z,0.12
2023-01-23T18:22:49.984Z,0.12
2023-01-23T18:25:18.911Z,-0.12
2023-01-23T18:27:50.460Z,0.06
2023-01-23T18:30:43.352Z,-0.23
2023-01-23T18:33:32.873Z,-0.06
2023-01-23T18:36:27.236Z,0.16
2023-01-23T18:39:11.086Z,0.05
2023-01-23T18:41:47.418Z,-0.09
2023-01-23T18:44:24.219Z,0.16
2023-01-23T18:46:51.024Z,-0.11
2023-01-23T18:49:32.073Z,0.07
2023-01-23T18:52:09.349Z,0.06
2023-01-23T18:54:53.298Z,-0.17
2023-01-23T18:57:38.500Z,0.09
2023-01-23T19:00:49.949Z,0.10
2023-01-23T19:03:18.424Z,0.11
2023-01-23T19:05:45.795Z,0.11
2023-01-23T19:08:30.792Z,0.05
2023-01-23T19:11:06.236Z,-0.10
2023-01-23T19:13:42.895Z,-0.01
2023-01-23T19:16:24.477Z,-0.11
2023-01-23T19:19:14.728Z,0.11
2023-01-23T19:21:42.440Z,-0.16
2023-01-23T19:24:12.609Z,-0.18
2023-01-23T19:26:41.971Z,0.05
2023-01-23T19:29:25.804Z,-0.25
2023-01-23T19:32:04.078Z,-0.23
2023-01-23T19:34:32.753Z,0.04
2023-01-23T19:36:59.308Z,-0.07
2023-01-23T19:39:25.914Z,0.05
2023-01-23T19:41:53.357Z,-0.22
2023-01-23T19:44:24.123Z,-0.03
2023-01-23T19:46:51.262Z,-0.20
2023-01-23T19:49:17.934Z,-0.25
2023-01-23T19:51:44.642Z,-0.19
2023-01-23T19:54:13.631Z,0.01
2023-01-23T19:56:40.694Z,-0.15
2023-01-23T19:59:07.951Z,-0.22
2023-01-23T20:01:43.639Z,0.01
2023-01-23T20:04:19.237Z,-0.02
2023-01-23T20:06:46.421Z,-0.10
2023-01-23T20:09:16.397Z,-0.05
2023-01-23T20:11:44.473Z,-0.19
2023-01-23T20:14:11.545Z,-0.20
2023-01-23T20:16:40.375Z,-0.28
2023-01-23T20:19:07.858Z,-0.13
2023-01-23T20:21:34.809Z,-0.48
2023-01-23T20:24:01.511Z,-0.23
2023-01-23T20:26:28.165Z,-0.35
2023-01-23T20:28:54.814Z,-0.13
2023-01-23T20:31:22.235Z,-0.44
2023-01-23T20:33:49.375Z,-0.18
2023-01-23T20:36:16.644Z,-0.25
2023-01-23T20:38:43.670Z,-0.22
2023-01-23T20:41:15.688Z,-0.37
2023-01-23T20:43:45.619Z,-0.41
2023-01-23T20:46:14.655Z,-0.18
2023-01-23T20:48:44.249Z,-0.40
2023-01-23T20:51:11.888Z,-0.42
2023-01-23T20:53:40.002Z,-0.23
2023-01-23T20:56:07.965Z,-0.30
2023-01-23T20:58:55.258Z,-0.52
2023-01-23T21:01:25.359Z,-0.47
2023-01-23T21:03:52.471Z,-0.37
2023-01-23T21:06:19.223Z,-0.31
2023-01-23T21:08:46.214Z,-0.27
2023-01-23T21:11:15.485Z,-0.28
2023-01-23T21:13:42.536Z,-0.24
2023-01-23T21:16:13.283Z,-0.29
2023-01-23T21:18:44.788Z,-0.26
2023-01-23T21:21:19.601Z,-0.31
2023-01-23T21:23:48.983Z,-0.31
2023-01-23T21:26:22.213Z,-0.40
2023-01-23T21:28:50.564Z,-0.49
2023-01-23T21:31:23.521Z,-0.43
2023-01-23T21:33:52.190Z,-0.62
2023-01-23T21:36:21.719Z,-0.54
2023-01-23T21:38:51.180Z,-0.50
2023-01-23T21:41:18.499Z,-0.53
2023-01-23T21:43:45.117Z,-0.39
2023-01-23T21:46:11.824Z,-0.72
2023-01-23T21:48:38.466Z,-0.49
2023-01-23T21:51:06.755Z,-0.38
2023-01-23T21:53:34.057Z,-0.45
2023-01-23T21:56:00.643Z,-0.55
2023-01-23T21:58:27.354Z,-0.48
2023-01-23T22:01:17.221Z,-0.46
2023-01-23T22:03:44.272Z,-0.68
2023-01-23T22:06:11.054Z,-0.71
2023-01-23T22:08:37.998Z,-0.45
2023-01-23T22:11:05.904Z,-0.44
2023-01-23T22:13:33.085Z,-0.93
2023-01-23T22:16:01.167Z,-0.47
2023-01-23T22:18:29.153Z,-0.42
2023-01-23T22:21:01.108Z,-0.40
2023-01-23T22:23:28.138Z,-0.62
2023-01-23T22:26:07.810Z,-0.41
2023-01-23T22:28:35.054Z,-0.40
2023-01-23T22:31:10.993Z,-0.45
2023-01-23T22:33:40.797Z,-0.41
2023-01-23T22:36:09.816Z,-0.38
2023-01-23T22:38:36.502Z,-0.81
2023-01-23T22:41:05.142Z,-0.63
2023-01-23T22:43:32.823Z,-0.46
2023-01-23T22:46:19.307Z,-0.41
2023-01-23T22:48:46.223Z,-0.44
2023-01-23T22:51:18.989Z,-0.47
2023-01-23T22:53:45.651Z,-0.49
2023-01-23T22:56:12.526Z,-0.78
2023-01-23T22:58:39.141Z,-0.51
2023-01-23T23:01:06.131Z,-0.54
2023-01-23T23:03:37.165Z,-0.58
2023-01-23T23:06:04.660Z,-0.49
2023-01-23T23:08:31.317Z,-0.72
2023-01-23T23:11:06.181Z,-0.55
2023-01-23T23:13:35.714Z,-0.52
2023-01-23T23:16:08.257Z,-0.89
2023-01-23T23:18:38.211Z,-0.74
2023-01-23T23:21:08.912Z,-0.63
2023-01-23T23:23:36.085Z,-0.66
2023-01-23T23:26:04.607Z,-0.71
2023-01-23T23:28:31.648Z,-0.80
2023-01-23T23:30:58.322Z,-0.59
2023-01-23T23:33:25.030Z,-0.64
2023-01-23T23:35:51.692Z,-0.65
2023-01-23T23:38:18.634Z,-0.71
2023-01-23T23:40:57.270Z,-0.92
2023-01-23T23:43:24.322Z,-0.73
2023-01-23T23:45:52.749Z,-0.96
2023-01-23T23:48:20.024Z,-0.79
2023-01-23T23:50:46.744Z,-0.82
2023-01-23T23:53:13.551Z,-1.00
2023-01-23T23:55:40.184Z,-0.75
2023-01-23T23:58:06.765Z,-0.93
